sensor_id;sensor_type;location;lat;lon;timestamp;P1;durP1;ratioP1;P2;durP2;ratioP2
10418;SDS011;5256;48.728;9.140;2022-12-18T00:02:04;2.10;;;2.00;;
10418;SDS011;5256;48.728;9.140;2022-12-18T00:04:29;1.90;;;1.90;;
10418;SDS011;5256;48.728;9.140;2022-12-18T00:06:55;1.80;;;1.80;;
10418;SDS011;5256;48.728;9.140;2022-12-18T00:09:21;1.80;;;1.80;;
10418;SDS011;5256;48.728;9.140;2022-12-18T00:11:46;1.80;;;1.80;;
10418;SDS011;5256;48.728;9.140;2022-12-18T00:14:12;1.87;;;1.87;;
10418;SDS011;5256;48.728;9.140;2022-12-18T00:16:38;1.90;;;1.90;;
10418;SDS011;5256;48.728;9.140;2022-12-18T00:19:05;1.80;;;1.80;;
10418;SDS011;5256;48.728;9.140;2022-12-18T00:21:32;1.80;;;1.80;;
10418;SDS011;5256;48.728;9.140;2022-12-18T00:23:58;1.80;;;1.80;;
10418;SDS011;5256;48.728;9.140;2022-12-18T00:26:28;1.80;;;1.80;;
10418;SDS011;5256;48.728;9.140;2022-12-18T00:28:57;1.80;;;1.80;;
10418;SDS011;5256;48.728;9.140;2022-12-18T00:31:28;1.90;;;1.90;;
10418;SDS011;5256;48.728;9.140;2022-12-18T00:33:57;1.80;;;1.80;;
10418;SDS011;5256;48.728;9.140;2022-12-18T00:36:24;1.80;;;1.80;;
10418;SDS011;5256;48.728;9.140;2022-12-18T00:38:53;1.60;;;1.60;;
10418;SDS011;5256;48.728;9.140;2022-12-18T00:41:19;1.80;;;1.80;;
10418;SDS011;5256;48.728;9.140;2022-12-18T00:44:04;1.80;;;1.80;;
10418;SDS011;5256;48.728;9.140;2022-12-18T00:46:31;1.90;;;1.90;;
10418;SDS011;5256;48.728;9.140;2022-12-18T00:48:57;1.80;;;1.80;;
10418;SDS011;5256;48.728;9.140;2022-12-18T00:51:23;1.87;;;1.87;;
10418;SDS011;5256;48.728;9.140;2022-12-18T00:53:49;1.80;;;1.80;;
10418;SDS011;5256;48.728;9.140;2022-12-18T00:56:15;1.90;;;1.90;;
10418;SDS011;5256;48.728;9.140;2022-12-18T00:58:40;1.73;;;1.73;;
10418;SDS011;5256;48.728;9.140;2022-12-18T01:01:06;2.10;;;2.00;;
10418;SDS011;5256;48.728;9.140;2022-12-18T01:03:32;1.80;;;1.80;;
10418;SDS011;5256;48.728;9.140;2022-12-18T01:05:58;1.90;;;1.90;;
10418;SDS011;5256;48.728;9.140;2022-12-18T01:08:23;1.80;;;1.80;;
10418;SDS011;5256;48.728;9.140;2022-12-18T01:10:49;1.70;;;1.70;;
10418;SDS011;5256;48.728;9.140;2022-12-18T01:13:15;2.00;;;1.90;;
10418;SDS011;5256;48.728;9.140;2022-12-18T01:15:47;1.87;;;1.87;;
10418;SDS011;5256;48.728;9.140;2022-12-18T01:18:14;1.70;;;1.70;;
10418;SDS011;5256;48.728;9.140;2022-12-18T01:20:39;1.90;;;1.90;;
10418;SDS011;5256;48.728;9.140;2022-12-18T01:23:05;1.90;;;1.90;;
10418;SDS011;5256;48.728;9.140;2022-12-18T01:25:30;1.67;;;1.67;;
10418;SDS011;5256;48.728;9.140;2022-12-18T01:27:56;1.90;;;1.90;;
10418;SDS011;5256;48.728;9.140;2022-12-18T01:30:21;1.80;;;1.80;;
10418;SDS011;5256;48.728;9.140;2022-12-18T01:32:47;1.90;;;1.90;;
10418;SDS011;5256;48.728;9.140;2022-12-18T01:35:13;1.70;;;1.70;;
10418;SDS011;5256;48.728;9.140;2022-12-18T01:37:38;1.80;;;1.80;;
10418;SDS011;5256;48.728;9.140;2022-12-18T01:40:04;1.80;;;1.80;;
10418;SDS011;5256;48.728;9.140;2022-12-18T01:42:30;2.13;;;2.03;;
10418;SDS011;5256;48.728;9.140;2022-12-18T01:47:57;2.10;;;2.00;;
10418;SDS011;5256;48.728;9.140;2022-12-18T01:50:28;1.90;;;1.90;;
10418;SDS011;5256;48.728;9.140;2022-12-18T01:53:03;1.90;;;1.90;;
10418;SDS011;5256;48.728;9.140;2022-12-18T01:55:29;1.80;;;1.80;;
10418;SDS011;5256;48.728;9.140;2022-12-18T01:57:59;2.07;;;1.97;;
10418;SDS011;5256;48.728;9.140;2022-12-18T02:00:26;1.70;;;1.70;;
10418;SDS011;5256;48.728;9.140;2022-12-18T02:02:52;1.80;;;1.80;;
10418;SDS011;5256;48.728;9.140;2022-12-18T02:08:08;2.10;;;2.00;;
10418;SDS011;5256;48.728;9.140;2022-12-18T02:13:27;1.80;;;1.80;;
10418;SDS011;5256;48.728;9.140;2022-12-18T02:18:44;1.70;;;1.70;;
10418;SDS011;5256;48.728;9.140;2022-12-18T02:27:10;1.90;;;1.90;;
10418;SDS011;5256;48.728;9.140;2022-12-18T02:29:38;2.00;;;1.90;;
10418;SDS011;5256;48.728;9.140;2022-12-18T02:32:13;1.80;;;1.80;;
10418;SDS011;5256;48.728;9.140;2022-12-18T02:34:41;1.90;;;1.90;;
10418;SDS011;5256;48.728;9.140;2022-12-18T02:37:10;1.80;;;1.80;;
10418;SDS011;5256;48.728;9.140;2022-12-18T02:39:39;1.80;;;1.80;;
10418;SDS011;5256;48.728;9.140;2022-12-18T02:42:07;1.60;;;1.60;;
10418;SDS011;5256;48.728;9.140;2022-12-18T02:44:34;1.83;;;1.83;;
10418;SDS011;5256;48.728;9.140;2022-12-18T02:47:10;1.90;;;1.90;;
10418;SDS011;5256;48.728;9.140;2022-12-18T02:58:21;1.73;;;1.73;;
10418;SDS011;5256;48.728;9.140;2022-12-18T03:01:33;1.70;;;1.70;;
10418;SDS011;5256;48.728;9.140;2022-12-18T03:03:56;1.80;;;1.80;;
10418;SDS011;5256;48.728;9.140;2022-12-18T03:06:30;1.80;;;1.80;;
10418;SDS011;5256;48.728;9.140;2022-12-18T03:09:01;1.60;;;1.60;;
10418;SDS011;5256;48.728;9.140;2022-12-18T03:11:31;1.80;;;1.80;;
10418;SDS011;5256;48.728;9.140;2022-12-18T03:14:17;1.80;;;1.80;;
10418;SDS011;5256;48.728;9.140;2022-12-18T03:16:46;1.80;;;1.80;;
10418;SDS011;5256;48.728;9.140;2022-12-18T03:19:16;1.90;;;1.90;;
10418;SDS011;5256;48.728;9.140;2022-12-18T03:21:47;1.70;;;1.70;;
10418;SDS011;5256;48.728;9.140;2022-12-18T03:24:16;2.10;;;2.00;;
10418;SDS011;5256;48.728;9.140;2022-12-18T03:26:45;1.70;;;1.70;;
10418;SDS011;5256;48.728;9.140;2022-12-18T03:29:16;1.90;;;1.90;;
10418;SDS011;5256;48.728;9.140;2022-12-18T03:31:47;1.60;;;1.60;;
10418;SDS011;5256;48.728;9.140;2022-12-18T03:34:31;1.90;;;1.90;;
10418;SDS011;5256;48.728;9.140;2022-12-18T03:37:02;1.90;;;1.90;;
10418;SDS011;5256;48.728;9.140;2022-12-18T03:39:28;1.80;;;1.80;;
10418;SDS011;5256;48.728;9.140;2022-12-18T03:44:45;1.80;;;1.80;;
10418;SDS011;5256;48.728;9.140;2022-12-18T03:47:25;2.10;;;2.00;;
10418;SDS011;5256;48.728;9.140;2022-12-18T03:50:11;2.03;;;1.93;;
10418;SDS011;5256;48.728;9.140;2022-12-18T03:52:44;1.60;;;1.60;;
10418;SDS011;5256;48.728;9.140;2022-12-18T03:55:24;2.10;;;2.00;;
10418;SDS011;5256;48.728;9.140;2022-12-18T03:57:52;1.90;;;1.90;;
10418;SDS011;5256;48.728;9.140;2022-12-18T04:00:19;1.90;;;1.90;;
10418;SDS011;5256;48.728;9.140;2022-12-18T04:02:55;1.90;;;1.90;;
10418;SDS011;5256;48.728;9.140;2022-12-18T04:05:22;2.10;;;2.00;;
10418;SDS011;5256;48.728;9.140;2022-12-18T04:07:50;2.00;;;1.90;;
10418;SDS011;5256;48.728;9.140;2022-12-18T04:10:18;1.80;;;1.80;;
10418;SDS011;5256;48.728;9.140;2022-12-18T04:12:43;1.90;;;1.90;;
10418;SDS011;5256;48.728;9.140;2022-12-18T04:15:10;1.90;;;1.90;;
10418;SDS011;5256;48.728;9.140;2022-12-18T04:17:36;1.90;;;1.90;;
10418;SDS011;5256;48.728;9.140;2022-12-18T04:20:02;1.97;;;1.90;;
10418;SDS011;5256;48.728;9.140;2022-12-18T04:22:28;2.07;;;2.00;;
10418;SDS011;5256;48.728;9.140;2022-12-18T04:24:53;1.90;;;1.90;;
10418;SDS011;5256;48.728;9.140;2022-12-18T04:27:19;2.10;;;2.00;;
10418;SDS011;5256;48.728;9.140;2022-12-18T04:29:44;1.90;;;1.90;;
10418;SDS011;5256;48.728;9.140;2022-12-18T04:32:10;1.80;;;1.80;;
10418;SDS011;5256;48.728;9.140;2022-12-18T04:34:35;1.90;;;1.90;;
10418;SDS011;5256;48.728;9.140;2022-12-18T04:37:01;1.80;;;1.80;;
10418;SDS011;5256;48.728;9.140;2022-12-18T04:39:26;2.10;;;2.00;;
10418;SDS011;5256;48.728;9.140;2022-12-18T04:41:52;1.90;;;1.90;;
10418;SDS011;5256;48.728;9.140;2022-12-18T04:44:17;2.10;;;2.00;;
10418;SDS011;5256;48.728;9.140;2022-12-18T04:46:43;1.90;;;1.90;;
10418;SDS011;5256;48.728;9.140;2022-12-18T04:49:09;1.50;;;1.50;;
10418;SDS011;5256;48.728;9.140;2022-12-18T04:51:38;1.80;;;1.80;;
10418;SDS011;5256;48.728;9.140;2022-12-18T04:54:03;1.90;;;1.90;;
10418;SDS011;5256;48.728;9.140;2022-12-18T04:56:30;2.10;;;2.00;;
10418;SDS011;5256;48.728;9.140;2022-12-18T04:58:56;1.80;;;1.80;;
10418;SDS011;5256;48.728;9.140;2022-12-18T05:01:22;1.67;;;1.67;;
10418;SDS011;5256;48.728;9.140;2022-12-18T05:03:48;1.87;;;1.87;;
10418;SDS011;5256;48.728;9.140;2022-12-18T05:06:13;1.90;;;1.90;;
10418;SDS011;5256;48.728;9.140;2022-12-18T05:08:39;1.80;;;1.80;;
10418;SDS011;5256;48.728;9.140;2022-12-18T05:11:06;2.20;;;2.10;;
10418;SDS011;5256;48.728;9.140;2022-12-18T05:13:34;2.20;;;2.10;;
10418;SDS011;5256;48.728;9.140;2022-12-18T05:16:00;2.30;;;2.20;;
10418;SDS011;5256;48.728;9.140;2022-12-18T05:18:25;1.80;;;1.80;;
10418;SDS011;5256;48.728;9.140;2022-12-18T05:20:52;2.10;;;2.00;;
10418;SDS011;5256;48.728;9.140;2022-12-18T05:23:18;2.20;;;2.10;;
10418;SDS011;5256;48.728;9.140;2022-12-18T05:25:54;1.90;;;1.90;;
10418;SDS011;5256;48.728;9.140;2022-12-18T05:28:20;1.73;;;1.73;;
10418;SDS011;5256;48.728;9.140;2022-12-18T05:30:50;2.10;;;2.00;;
10418;SDS011;5256;48.728;9.140;2022-12-18T05:33:17;1.87;;;1.87;;
10418;SDS011;5256;48.728;9.140;2022-12-18T05:35:44;2.10;;;2.00;;
10418;SDS011;5256;48.728;9.140;2022-12-18T05:38:14;2.20;;;2.10;;
10418;SDS011;5256;48.728;9.140;2022-12-18T05:40:41;1.60;;;1.60;;
10418;SDS011;5256;48.728;9.140;2022-12-18T05:43:07;2.00;;;1.90;;
10418;SDS011;5256;48.728;9.140;2022-12-18T05:45:36;2.13;;;2.03;;
10418;SDS011;5256;48.728;9.140;2022-12-18T05:48:03;2.10;;;2.00;;
10418;SDS011;5256;48.728;9.140;2022-12-18T05:50:28;2.30;;;2.20;;
10418;SDS011;5256;48.728;9.140;2022-12-18T05:52:54;2.10;;;2.00;;
10418;SDS011;5256;48.728;9.140;2022-12-18T05:55:20;2.10;;;2.00;;
10418;SDS011;5256;48.728;9.140;2022-12-18T05:57:45;2.30;;;2.20;;
10418;SDS011;5256;48.728;9.140;2022-12-18T06:00:11;2.20;;;2.10;;
10418;SDS011;5256;48.728;9.140;2022-12-18T06:02:37;2.20;;;2.10;;
10418;SDS011;5256;48.728;9.140;2022-12-18T06:05:02;2.30;;;2.20;;
10418;SDS011;5256;48.728;9.140;2022-12-18T06:07:28;2.20;;;2.10;;
10418;SDS011;5256;48.728;9.140;2022-12-18T06:09:54;2.10;;;2.00;;
10418;SDS011;5256;48.728;9.140;2022-12-18T06:12:19;2.20;;;2.10;;
10418;SDS011;5256;48.728;9.140;2022-12-18T06:14:46;2.10;;;2.00;;
10418;SDS011;5256;48.728;9.140;2022-12-18T06:17:11;2.10;;;2.00;;
10418;SDS011;5256;48.728;9.140;2022-12-18T06:19:37;2.20;;;2.10;;
10418;SDS011;5256;48.728;9.140;2022-12-18T06:22:02;1.80;;;1.80;;
10418;SDS011;5256;48.728;9.140;2022-12-18T06:24:28;1.90;;;1.90;;
10418;SDS011;5256;48.728;9.140;2022-12-18T06:26:54;2.20;;;2.10;;
10418;SDS011;5256;48.728;9.140;2022-12-18T06:29:20;2.10;;;2.00;;
10418;SDS011;5256;48.728;9.140;2022-12-18T06:31:45;1.93;;;1.90;;
10418;SDS011;5256;48.728;9.140;2022-12-18T06:34:11;2.10;;;2.00;;
10418;SDS011;5256;48.728;9.140;2022-12-18T06:36:36;2.10;;;2.00;;
10418;SDS011;5256;48.728;9.140;2022-12-18T06:39:02;2.07;;;2.00;;
10418;SDS011;5256;48.728;9.140;2022-12-18T06:41:27;2.10;;;2.00;;
10418;SDS011;5256;48.728;9.140;2022-12-18T06:43:53;2.30;;;2.20;;
10418;SDS011;5256;48.728;9.140;2022-12-18T06:46:18;2.20;;;2.10;;
10418;SDS011;5256;48.728;9.140;2022-12-18T06:48:46;1.70;;;1.70;;
10418;SDS011;5256;48.728;9.140;2022-12-18T06:51:15;2.00;;;2.00;;
10418;SDS011;5256;48.728;9.140;2022-12-18T06:53:42;2.10;;;2.00;;
10418;SDS011;5256;48.728;9.140;2022-12-18T06:56:07;2.10;;;2.00;;
10418;SDS011;5256;48.728;9.140;2022-12-18T06:58:33;2.20;;;2.10;;
10418;SDS011;5256;48.728;9.140;2022-12-18T07:00:59;2.10;;;2.00;;
10418;SDS011;5256;48.728;9.140;2022-12-18T07:03:29;2.20;;;2.10;;
10418;SDS011;5256;48.728;9.140;2022-12-18T07:05:55;1.90;;;1.90;;
10418;SDS011;5256;48.728;9.140;2022-12-18T07:08:21;2.10;;;2.00;;
10418;SDS011;5256;48.728;9.140;2022-12-18T07:10:47;2.10;;;2.00;;
10418;SDS011;5256;48.728;9.140;2022-12-18T07:13:14;2.20;;;2.10;;
10418;SDS011;5256;48.728;9.140;2022-12-18T07:15:40;2.10;;;2.00;;
10418;SDS011;5256;48.728;9.140;2022-12-18T07:18:06;2.03;;;1.93;;
10418;SDS011;5256;48.728;9.140;2022-12-18T07:20:32;2.20;;;2.10;;
10418;SDS011;5256;48.728;9.140;2022-12-18T07:22:57;2.13;;;2.03;;
10418;SDS011;5256;48.728;9.140;2022-12-18T07:25:23;1.80;;;1.80;;
10418;SDS011;5256;48.728;9.140;2022-12-18T07:27:48;1.90;;;1.90;;
10418;SDS011;5256;48.728;9.140;2022-12-18T07:30:14;1.90;;;1.90;;
10418;SDS011;5256;48.728;9.140;2022-12-18T07:32:39;2.10;;;2.00;;
10418;SDS011;5256;48.728;9.140;2022-12-18T07:35:05;2.20;;;2.10;;
10418;SDS011;5256;48.728;9.140;2022-12-18T07:37:31;2.07;;;1.97;;
10418;SDS011;5256;48.728;9.140;2022-12-18T07:40:18;2.10;;;2.00;;
10418;SDS011;5256;48.728;9.140;2022-12-18T07:42:44;2.20;;;2.10;;
10418;SDS011;5256;48.728;9.140;2022-12-18T07:45:09;2.10;;;2.00;;
10418;SDS011;5256;48.728;9.140;2022-12-18T07:47:35;1.90;;;1.90;;
10418;SDS011;5256;48.728;9.140;2022-12-18T07:50:02;1.90;;;1.90;;
10418;SDS011;5256;48.728;9.140;2022-12-18T07:52:31;2.10;;;2.00;;
10418;SDS011;5256;48.728;9.140;2022-12-18T07:54:57;1.70;;;1.70;;
10418;SDS011;5256;48.728;9.140;2022-12-18T07:57:22;1.80;;;1.80;;
10418;SDS011;5256;48.728;9.140;2022-12-18T07:59:48;1.90;;;1.90;;
10418;SDS011;5256;48.728;9.140;2022-12-18T08:02:13;2.17;;;2.07;;
10418;SDS011;5256;48.728;9.140;2022-12-18T08:04:39;1.80;;;1.80;;
10418;SDS011;5256;48.728;9.140;2022-12-18T08:07:05;2.10;;;2.00;;
10418;SDS011;5256;48.728;9.140;2022-12-18T08:09:30;2.00;;;1.90;;
10418;SDS011;5256;48.728;9.140;2022-12-18T08:11:56;1.70;;;1.70;;
10418;SDS011;5256;48.728;9.140;2022-12-18T08:14:21;1.80;;;1.80;;
10418;SDS011;5256;48.728;9.140;2022-12-18T08:16:47;1.80;;;1.80;;
10418;SDS011;5256;48.728;9.140;2022-12-18T08:19:13;1.70;;;1.70;;
10418;SDS011;5256;48.728;9.140;2022-12-18T08:21:41;1.70;;;1.70;;
10418;SDS011;5256;48.728;9.140;2022-12-18T08:24:08;1.50;;;1.50;;
10418;SDS011;5256;48.728;9.140;2022-12-18T08:26:34;1.70;;;1.70;;
10418;SDS011;5256;48.728;9.140;2022-12-18T08:28:59;1.90;;;1.90;;
10418;SDS011;5256;48.728;9.140;2022-12-18T08:34:47;1.97;;;1.90;;
10418;SDS011;5256;48.728;9.140;2022-12-18T08:37:13;1.70;;;1.70;;
10418;SDS011;5256;48.728;9.140;2022-12-18T08:39:38;1.70;;;1.70;;
10418;SDS011;5256;48.728;9.140;2022-12-18T08:42:04;1.60;;;1.60;;
10418;SDS011;5256;48.728;9.140;2022-12-18T08:44:48;1.70;;;1.70;;
10418;SDS011;5256;48.728;9.140;2022-12-18T08:47:14;1.50;;;1.50;;
10418;SDS011;5256;48.728;9.140;2022-12-18T08:49:39;1.70;;;1.70;;
10418;SDS011;5256;48.728;9.140;2022-12-18T08:52:05;1.70;;;1.70;;
10418;SDS011;5256;48.728;9.140;2022-12-18T08:54:31;1.50;;;1.50;;
10418;SDS011;5256;48.728;9.140;2022-12-18T08:56:56;1.60;;;1.60;;
10418;SDS011;5256;48.728;9.140;2022-12-18T08:59:22;1.60;;;1.60;;
10418;SDS011;5256;48.728;9.140;2022-12-18T09:01:48;1.70;;;1.70;;
10418;SDS011;5256;48.728;9.140;2022-12-18T09:04:14;1.60;;;1.60;;
10418;SDS011;5256;48.728;9.140;2022-12-18T09:06:39;1.60;;;1.60;;
10418;SDS011;5256;48.728;9.140;2022-12-18T09:09:05;1.70;;;1.70;;
10418;SDS011;5256;48.728;9.140;2022-12-18T09:11:31;1.70;;;1.70;;
10418;SDS011;5256;48.728;9.140;2022-12-18T09:13:58;1.60;;;1.60;;
10418;SDS011;5256;48.728;9.140;2022-12-18T09:16:25;1.57;;;1.57;;
10418;SDS011;5256;48.728;9.140;2022-12-18T09:18:53;1.60;;;1.60;;
10418;SDS011;5256;48.728;9.140;2022-12-18T09:21:24;1.50;;;1.50;;
10418;SDS011;5256;48.728;9.140;2022-12-18T09:23:51;1.60;;;1.60;;
10418;SDS011;5256;48.728;9.140;2022-12-18T09:29:07;1.50;;;1.50;;
10418;SDS011;5256;48.728;9.140;2022-12-18T09:31:33;1.50;;;1.50;;
10418;SDS011;5256;48.728;9.140;2022-12-18T09:34:00;1.70;;;1.70;;
10418;SDS011;5256;48.728;9.140;2022-12-18T09:36:25;1.60;;;1.60;;
10418;SDS011;5256;48.728;9.140;2022-12-18T09:38:51;1.50;;;1.50;;
10418;SDS011;5256;48.728;9.140;2022-12-18T09:41:29;1.70;;;1.70;;
10418;SDS011;5256;48.728;9.140;2022-12-18T09:43:57;1.50;;;1.50;;
10418;SDS011;5256;48.728;9.140;2022-12-18T09:46:27;1.40;;;1.40;;
10418;SDS011;5256;48.728;9.140;2022-12-18T09:48:59;1.60;;;1.60;;
10418;SDS011;5256;48.728;9.140;2022-12-18T09:51:29;1.50;;;1.50;;
10418;SDS011;5256;48.728;9.140;2022-12-18T09:54:01;1.50;;;1.50;;
10418;SDS011;5256;48.728;9.140;2022-12-18T09:56:31;1.50;;;1.50;;
10418;SDS011;5256;48.728;9.140;2022-12-18T09:59:02;1.60;;;1.60;;
10418;SDS011;5256;48.728;9.140;2022-12-18T10:01:29;1.40;;;1.40;;
10418;SDS011;5256;48.728;9.140;2022-12-18T10:03:56;1.47;;;1.47;;
10418;SDS011;5256;48.728;9.140;2022-12-18T10:06:36;1.40;;;1.40;;
10418;SDS011;5256;48.728;9.140;2022-12-18T10:12:25;1.40;;;1.40;;
10418;SDS011;5256;48.728;9.140;2022-12-18T10:15:13;1.40;;;1.40;;
10418;SDS011;5256;48.728;9.140;2022-12-18T10:21:00;1.40;;;1.40;;
10418;SDS011;5256;48.728;9.140;2022-12-18T10:26:19;1.40;;;1.40;;
10418;SDS011;5256;48.728;9.140;2022-12-18T10:28:45;1.40;;;1.40;;
10418;SDS011;5256;48.728;9.140;2022-12-18T10:31:15;1.37;;;1.37;;
10418;SDS011;5256;48.728;9.140;2022-12-18T10:33:48;1.30;;;1.30;;
10418;SDS011;5256;48.728;9.140;2022-12-18T10:36:14;1.40;;;1.40;;
10418;SDS011;5256;48.728;9.140;2022-12-18T10:38:40;1.33;;;1.33;;
10418;SDS011;5256;48.728;9.140;2022-12-18T10:44:22;1.40;;;1.40;;
10418;SDS011;5256;48.728;9.140;2022-12-18T10:46:53;1.40;;;1.40;;
10418;SDS011;5256;48.728;9.140;2022-12-18T10:49:31;1.30;;;1.30;;
10418;SDS011;5256;48.728;9.140;2022-12-18T10:55:01;1.30;;;1.30;;
10418;SDS011;5256;48.728;9.140;2022-12-18T10:57:30;1.30;;;1.30;;
10418;SDS011;5256;48.728;9.140;2022-12-18T10:59:57;1.40;;;1.40;;
10418;SDS011;5256;48.728;9.140;2022-12-18T11:02:28;1.20;;;1.20;;
10418;SDS011;5256;48.728;9.140;2022-12-18T11:04:59;1.40;;;1.40;;
10418;SDS011;5256;48.728;9.140;2022-12-18T11:07:26;1.30;;;1.30;;
10418;SDS011;5256;48.728;9.140;2022-12-18T11:10:18;1.40;;;1.40;;
10418;SDS011;5256;48.728;9.140;2022-12-18T11:12:46;1.20;;;1.20;;
10418;SDS011;5256;48.728;9.140;2022-12-18T11:15:15;1.10;;;1.10;;
10418;SDS011;5256;48.728;9.140;2022-12-18T11:17:46;1.20;;;1.20;;
10418;SDS011;5256;48.728;9.140;2022-12-18T11:20:27;1.20;;;1.20;;
10418;SDS011;5256;48.728;9.140;2022-12-18T11:22:58;1.20;;;1.20;;
10418;SDS011;5256;48.728;9.140;2022-12-18T11:25:25;1.20;;;1.20;;
10418;SDS011;5256;48.728;9.140;2022-12-18T11:27:55;1.20;;;1.20;;
10418;SDS011;5256;48.728;9.140;2022-12-18T11:30:26;1.20;;;1.20;;
10418;SDS011;5256;48.728;9.140;2022-12-18T11:38:34;1.27;;;1.27;;
10418;SDS011;5256;48.728;9.140;2022-12-18T11:41:15;1.30;;;1.30;;
10418;SDS011;5256;48.728;9.140;2022-12-18T11:43:58;1.40;;;1.40;;
10418;SDS011;5256;48.728;9.140;2022-12-18T11:49:07;1.30;;;1.30;;
10418;SDS011;5256;48.728;9.140;2022-12-18T11:51:54;1.30;;;1.30;;
10418;SDS011;5256;48.728;9.140;2022-12-18T11:54:28;1.20;;;1.20;;
10418;SDS011;5256;48.728;9.140;2022-12-18T11:56:56;1.20;;;1.20;;
10418;SDS011;5256;48.728;9.140;2022-12-18T11:59:45;1.20;;;1.20;;
10418;SDS011;5256;48.728;9.140;2022-12-18T12:02:39;1.30;;;1.30;;
10418;SDS011;5256;48.728;9.140;2022-12-18T12:13:35;1.20;;;1.20;;
10418;SDS011;5256;48.728;9.140;2022-12-18T12:16:15;1.20;;;1.20;;
10418;SDS011;5256;48.728;9.140;2022-12-18T12:19:08;1.20;;;1.20;;
10418;SDS011;5256;48.728;9.140;2022-12-18T12:35:19;1.20;;;1.20;;
10418;SDS011;5256;48.728;9.140;2022-12-18T12:41:12;1.10;;;1.10;;
10418;SDS011;5256;48.728;9.140;2022-12-18T12:44:01;1.10;;;1.10;;
10418;SDS011;5256;48.728;9.140;2022-12-18T12:46:32;1.20;;;1.20;;
10418;SDS011;5256;48.728;9.140;2022-12-18T12:49:03;1.20;;;1.20;;
10418;SDS011;5256;48.728;9.140;2022-12-18T12:51:35;1.10;;;1.10;;
10418;SDS011;5256;48.728;9.140;2022-12-18T12:54:06;1.20;;;1.20;;
10418;SDS011;5256;48.728;9.140;2022-12-18T13:00:11;1.13;;;1.13;;
10418;SDS011;5256;48.728;9.140;2022-12-18T13:02:33;1.20;;;1.20;;
10418;SDS011;5256;48.728;9.140;2022-12-18T13:07:45;1.20;;;1.20;;
10418;SDS011;5256;48.728;9.140;2022-12-18T13:25:56;1.20;;;1.20;;
10418;SDS011;5256;48.728;9.140;2022-12-18T13:34:18;1.20;;;1.20;;
10418;SDS011;5256;48.728;9.140;2022-12-18T13:36:48;1.20;;;1.20;;
10418;SDS011;5256;48.728;9.140;2022-12-18T13:41:43;1.20;;;1.20;;
10418;SDS011;5256;48.728;9.140;2022-12-18T13:44:25;1.10;;;1.10;;
10418;SDS011;5256;48.728;9.140;2022-12-18T13:46:59;1.20;;;1.20;;
10418;SDS011;5256;48.728;9.140;2022-12-18T13:49:38;1.10;;;1.10;;
10418;SDS011;5256;48.728;9.140;2022-12-18T13:52:22;1.20;;;1.20;;
10418;SDS011;5256;48.728;9.140;2022-12-18T13:54:53;1.10;;;1.10;;
10418;SDS011;5256;48.728;9.140;2022-12-18T14:02:46;1.10;;;1.10;;
10418;SDS011;5256;48.728;9.140;2022-12-18T14:07:52;1.00;;;1.00;;
10418;SDS011;5256;48.728;9.140;2022-12-18T14:10:18;1.17;;;1.17;;
10418;SDS011;5256;48.728;9.140;2022-12-18T14:12:46;1.20;;;1.20;;
10418;SDS011;5256;48.728;9.140;2022-12-18T14:17:57;1.10;;;1.10;;
10418;SDS011;5256;48.728;9.140;2022-12-18T14:20:32;1.20;;;1.20;;
10418;SDS011;5256;48.728;9.140;2022-12-18T14:22:59;1.17;;;1.17;;
10418;SDS011;5256;48.728;9.140;2022-12-18T14:25:26;1.20;;;1.20;;
10418;SDS011;5256;48.728;9.140;2022-12-18T14:28:04;1.20;;;1.20;;
10418;SDS011;5256;48.728;9.140;2022-12-18T14:30:38;1.00;;;1.00;;
10418;SDS011;5256;48.728;9.140;2022-12-18T14:33:09;1.20;;;1.20;;
10418;SDS011;5256;48.728;9.140;2022-12-18T14:35:38;1.20;;;1.20;;
10418;SDS011;5256;48.728;9.140;2022-12-18T14:38:22;1.20;;;1.20;;
10418;SDS011;5256;48.728;9.140;2022-12-18T14:41:05;1.20;;;1.20;;
10418;SDS011;5256;48.728;9.140;2022-12-18T14:43:32;1.30;;;1.30;;
10418;SDS011;5256;48.728;9.140;2022-12-18T14:45:59;1.10;;;1.10;;
10418;SDS011;5256;48.728;9.140;2022-12-18T14:48:39;1.30;;;1.30;;
10418;SDS011;5256;48.728;9.140;2022-12-18T14:51:16;1.20;;;1.20;;
10418;SDS011;5256;48.728;9.140;2022-12-18T14:54:05;1.20;;;1.20;;
10418;SDS011;5256;48.728;9.140;2022-12-18T14:56:43;1.10;;;1.10;;
10418;SDS011;5256;48.728;9.140;2022-12-18T15:01:45;1.30;;;1.30;;
10418;SDS011;5256;48.728;9.140;2022-12-18T15:04:26;1.23;;;1.23;;
10418;SDS011;5256;48.728;9.140;2022-12-18T15:09:36;1.20;;;1.20;;
10418;SDS011;5256;48.728;9.140;2022-12-18T15:12:03;1.20;;;1.20;;
10418;SDS011;5256;48.728;9.140;2022-12-18T15:14:39;1.20;;;1.20;;
10418;SDS011;5256;48.728;9.140;2022-12-18T15:17:18;1.30;;;1.30;;
10418;SDS011;5256;48.728;9.140;2022-12-18T15:19:47;1.30;;;1.30;;
10418;SDS011;5256;48.728;9.140;2022-12-18T15:22:35;1.30;;;1.30;;
10418;SDS011;5256;48.728;9.140;2022-12-18T15:25:01;1.30;;;1.30;;
10418;SDS011;5256;48.728;9.140;2022-12-18T15:27:29;1.30;;;1.30;;
10418;SDS011;5256;48.728;9.140;2022-12-18T15:30:11;1.30;;;1.30;;
10418;SDS011;5256;48.728;9.140;2022-12-18T15:32:41;1.30;;;1.30;;
10418;SDS011;5256;48.728;9.140;2022-12-18T15:37:39;1.40;;;1.40;;
10418;SDS011;5256;48.728;9.140;2022-12-18T15:40:06;1.30;;;1.30;;
10418;SDS011;5256;48.728;9.140;2022-12-18T15:42:33;1.30;;;1.30;;
10418;SDS011;5256;48.728;9.140;2022-12-18T15:45:24;1.30;;;1.30;;
10418;SDS011;5256;48.728;9.140;2022-12-18T15:47:50;1.30;;;1.30;;
10418;SDS011;5256;48.728;9.140;2022-12-18T15:50:15;1.30;;;1.30;;
10418;SDS011;5256;48.728;9.140;2022-12-18T15:52:43;1.30;;;1.30;;
10418;SDS011;5256;48.728;9.140;2022-12-18T15:55:12;1.30;;;1.30;;
10418;SDS011;5256;48.728;9.140;2022-12-18T15:57:57;1.30;;;1.30;;
10418;SDS011;5256;48.728;9.140;2022-12-18T16:00:23;1.30;;;1.30;;
10418;SDS011;5256;48.728;9.140;2022-12-18T16:02:49;1.30;;;1.30;;
10418;SDS011;5256;48.728;9.140;2022-12-18T16:05:15;1.30;;;1.30;;
10418;SDS011;5256;48.728;9.140;2022-12-18T16:07:42;1.30;;;1.30;;
10418;SDS011;5256;48.728;9.140;2022-12-18T16:10:08;1.30;;;1.30;;
10418;SDS011;5256;48.728;9.140;2022-12-18T16:12:34;1.40;;;1.40;;
10418;SDS011;5256;48.728;9.140;2022-12-18T16:15:00;1.30;;;1.30;;
10418;SDS011;5256;48.728;9.140;2022-12-18T16:17:26;1.40;;;1.40;;
10418;SDS011;5256;48.728;9.140;2022-12-18T16:19:51;1.40;;;1.40;;
10418;SDS011;5256;48.728;9.140;2022-12-18T16:22:19;1.40;;;1.40;;
10418;SDS011;5256;48.728;9.140;2022-12-18T16:24:46;1.30;;;1.30;;
10418;SDS011;5256;48.728;9.140;2022-12-18T16:27:12;1.40;;;1.40;;
10418;SDS011;5256;48.728;9.140;2022-12-18T16:29:38;1.30;;;1.30;;
10418;SDS011;5256;48.728;9.140;2022-12-18T16:32:03;1.30;;;1.30;;
10418;SDS011;5256;48.728;9.140;2022-12-18T16:34:30;1.30;;;1.30;;
10418;SDS011;5256;48.728;9.140;2022-12-18T16:36:59;1.30;;;1.30;;
10418;SDS011;5256;48.728;9.140;2022-12-18T16:39:26;1.30;;;1.30;;
10418;SDS011;5256;48.728;9.140;2022-12-18T16:41:52;1.30;;;1.30;;
10418;SDS011;5256;48.728;9.140;2022-12-18T16:44:18;1.30;;;1.30;;
10418;SDS011;5256;48.728;9.140;2022-12-18T16:46:45;1.30;;;1.30;;
10418;SDS011;5256;48.728;9.140;2022-12-18T16:49:11;1.40;;;1.40;;
10418;SDS011;5256;48.728;9.140;2022-12-18T16:51:38;1.30;;;1.30;;
10418;SDS011;5256;48.728;9.140;2022-12-18T16:54:04;1.20;;;1.20;;
10418;SDS011;5256;48.728;9.140;2022-12-18T16:56:30;1.30;;;1.30;;
10418;SDS011;5256;48.728;9.140;2022-12-18T16:58:59;1.30;;;1.30;;
10418;SDS011;5256;48.728;9.140;2022-12-18T17:01:26;1.30;;;1.30;;
10418;SDS011;5256;48.728;9.140;2022-12-18T17:04:00;1.30;;;1.30;;
10418;SDS011;5256;48.728;9.140;2022-12-18T17:06:29;1.40;;;1.40;;
10418;SDS011;5256;48.728;9.140;2022-12-18T17:08:56;1.40;;;1.40;;
10418;SDS011;5256;48.728;9.140;2022-12-18T17:11:23;1.30;;;1.30;;
10418;SDS011;5256;48.728;9.140;2022-12-18T17:13:50;1.40;;;1.40;;
10418;SDS011;5256;48.728;9.140;2022-12-18T17:16:15;1.40;;;1.40;;
10418;SDS011;5256;48.728;9.140;2022-12-18T17:18:41;1.30;;;1.30;;
10418;SDS011;5256;48.728;9.140;2022-12-18T17:21:08;1.30;;;1.30;;
10418;SDS011;5256;48.728;9.140;2022-12-18T17:23:35;1.30;;;1.30;;
10418;SDS011;5256;48.728;9.140;2022-12-18T17:26:01;1.30;;;1.30;;